Ione, Oregon
Current Conditions -  °F | °C
As of 5:53 PM on Monday 22 Dec 2014 (Local Time) from KHRI Reporting Station
Clear Clear  
Wind Chill: 41°   Ceiling: Unl
Heat Index: 44°   Visibility: 10mi
Dew Point: 36°   Wind: 6mph
Humidity: 73%   Direction: 190°S
Pressure: 30.33"   Gusts: NA
Location:  45.5°N, 119.82°W
Report Text: KHRI 230153Z AUTO 19005KT 10SM CLR 07/02 A3033 RMK AO2 SLP274 T00670022
Loading
Personal Weather Stations






























Interactive Weather Map New forecast layout! Learn more

10-Day Weather Forecast

Advertisements
Track Severe Weather on mobile